createdAt,value
2018-02-20T00:01:56.672Z,23.00
2018-02-20T00:04:23.787Z,23.62
2018-02-20T00:06:50.156Z,24.93
2018-02-20T00:09:17.191Z,24.40
2018-02-20T00:11:43.459Z,24.58
2018-02-20T00:14:09.785Z,23.83
2018-02-20T00:16:36.138Z,23.90
2018-02-20T00:19:02.484Z,23.67
2018-02-20T00:21:28.796Z,24.00
2018-02-20T00:23:55.176Z,24.23
2018-02-20T00:26:22.209Z,22.55
2018-02-20T00:28:48.589Z,22.50
2018-02-20T00:31:14.839Z,21.73
2018-02-20T00:33:41.168Z,25.00
2018-02-20T00:36:07.504Z,24.37
2018-02-20T00:38:33.864Z,22.45
2018-02-20T00:41:00.195Z,22.93
2018-02-20T00:43:26.568Z,22.65
2018-02-20T00:45:52.871Z,22.77
2018-02-20T00:48:19.951Z,22.95
2018-02-20T00:50:46.284Z,22.90
2018-02-20T00:53:12.648Z,23.67
2018-02-20T00:55:38.980Z,24.42
2018-02-20T00:58:06.048Z,23.40
2018-02-20T01:00:32.388Z,24.10
2018-02-20T01:02:58.752Z,22.07
2018-02-20T01:05:25.261Z,23.10
2018-02-20T01:07:52.355Z,24.12
2018-02-20T01:10:18.667Z,23.85
2018-02-20T01:12:45.039Z,23.08
2018-02-20T01:15:11.365Z,23.12
2018-02-20T01:17:37.640Z,23.20
2018-02-20T01:20:04.686Z,23.45
2018-02-20T01:22:31.750Z,25.90
2018-02-20T01:24:58.076Z,23.85
2018-02-20T01:27:24.360Z,22.98
2018-02-20T01:29:50.668Z,24.95
2018-02-20T01:32:17.037Z,23.02
2018-02-20T01:34:43.376Z,24.37
2018-02-20T01:37:10.575Z,24.58
2018-02-20T01:39:36.912Z,24.73
2018-02-20T01:42:03.212Z,22.65
2018-02-20T01:44:29.580Z,24.25
2018-02-20T01:46:56.635Z,23.17
2018-02-20T01:49:23.717Z,24.23
2018-02-20T01:51:50.760Z,20.95
2018-02-20T01:54:17.840Z,23.33
2018-02-20T01:56:44.099Z,25.00
2018-02-20T01:59:10.419Z,24.87
2018-02-20T02:01:36.673Z,23.98
2018-02-20T02:04:02.992Z,23.12
2018-02-20T02:06:29.341Z,21.87
2018-02-20T02:08:56.761Z,24.70
2018-02-20T02:11:23.044Z,25.52
2018-02-20T02:13:49.398Z,24.10
2018-02-20T02:16:15.640Z,23.73
2018-02-20T02:18:42.000Z,22.75
2018-02-20T02:21:08.315Z,24.92
2018-02-20T02:23:34.686Z,25.05
2018-02-20T02:26:01.039Z,24.92
2018-02-20T02:28:28.112Z,22.35
2018-02-20T02:30:54.422Z,22.58
2018-02-20T02:33:21.496Z,22.90
2018-02-20T02:35:47.820Z,25.00
2018-02-20T02:38:14.177Z,24.58
2018-02-20T02:40:40.531Z,23.40
2018-02-20T02:43:06.875Z,23.58
2018-02-20T02:45:33.246Z,25.33
2018-02-20T02:48:00.306Z,23.62
2018-02-20T02:50:26.595Z,23.75
2018-02-20T02:52:53.725Z,23.58
2018-02-20T02:55:20.037Z,24.02
2018-02-20T02:57:46.369Z,24.67
2018-02-20T03:00:12.793Z,25.58
2018-02-20T03:02:39.173Z,23.98
2018-02-20T03:05:06.204Z,24.87
2018-02-20T03:07:32.576Z,23.92
2018-02-20T03:09:58.895Z,23.67
2018-02-20T03:12:25.167Z,23.05
2018-02-20T03:14:51.494Z,22.90
2018-02-20T03:17:17.851Z,21.48
2018-02-20T03:19:44.173Z,23.27
2018-02-20T03:22:10.525Z,22.45
2018-02-20T03:24:37.568Z,23.65
2018-02-20T03:27:03.832Z,23.05
2018-02-20T03:29:30.169Z,22.42
2018-02-20T03:31:56.548Z,22.45
2018-02-20T03:34:22.862Z,23.12
2018-02-20T03:36:49.148Z,22.33
2018-02-20T03:39:15.460Z,21.45
2018-02-20T03:41:42.531Z,21.55
2018-02-20T03:44:09.081Z,22.48
2018-02-20T03:46:35.399Z,21.10
2018-02-20T03:49:01.760Z,20.20
2018-02-20T03:51:28.808Z,21.70
2018-02-20T03:53:55.420Z,21.62
2018-02-20T03:56:21.700Z,21.70
2018-02-20T03:58:47.967Z,23.10
2018-02-20T04:01:14.284Z,22.85
2018-02-20T04:03:41.377Z,22.73
2018-02-20T04:06:07.700Z,24.90
2018-02-20T04:08:33.959Z,23.95
2018-02-20T04:11:00.280Z,22.33
2018-02-20T04:13:26.665Z,23.25
2018-02-20T04:15:52.977Z,23.77
2018-02-20T04:18:20.047Z,21.42
2018-02-20T04:20:47.113Z,23.00
2018-02-20T04:23:13.464Z,21.55
2018-02-20T04:25:39.709Z,20.00
2018-02-20T04:28:06.043Z,23.25
2018-02-20T04:30:32.370Z,22.17
2018-02-20T04:32:58.735Z,24.37
2018-02-20T04:35:25.778Z,21.60
2018-02-20T04:37:52.865Z,24.52
2018-02-20T04:40:19.191Z,23.85
2018-02-20T04:42:45.540Z,24.67
2018-02-20T04:45:11.868Z,23.65
2018-02-20T04:47:38.260Z,24.50
2018-02-20T04:50:04.566Z,24.92
2018-02-20T04:52:30.948Z,23.85
2018-02-20T04:54:57.257Z,23.62
2018-02-20T04:57:23.528Z,24.20
2018-02-20T04:59:50.818Z,25.58
2018-02-20T05:02:17.908Z,23.48
2018-02-20T05:04:44.397Z,24.67
2018-02-20T05:07:11.409Z,26.15
2018-02-20T05:09:37.675Z,23.40
2018-02-20T05:12:05.300Z,23.52
2018-02-20T05:14:31.591Z,23.70
2018-02-20T05:16:57.968Z,25.77
2018-02-20T05:19:24.472Z,24.33
2018-02-20T05:21:50.859Z,24.73
2018-02-20T05:24:17.916Z,25.23
2018-02-20T05:26:44.971Z,27.17
2018-02-20T05:29:11.484Z,25.40
2018-02-20T05:31:37.872Z,26.17
2018-02-20T05:34:04.209Z,24.92
2018-02-20T05:36:30.583Z,25.10
2018-02-20T05:38:56.944Z,24.50
2018-02-20T05:41:23.256Z,26.10
2018-02-20T05:43:51.339Z,23.25
2018-02-20T05:46:18.342Z,26.15
2018-02-20T05:48:44.659Z,25.60
2018-02-20T05:51:10.948Z,24.95
2018-02-20T07:15:33.474Z,20.90
2018-02-20T07:17:59.720Z,25.77
2018-02-20T07:20:26.770Z,26.52
2018-02-20T07:22:53.088Z,26.70
2018-02-20T07:25:19.468Z,25.85
2018-02-20T07:27:45.775Z,27.62
2018-02-20T07:30:12.169Z,25.95
2018-02-20T07:32:38.464Z,27.27
2018-02-20T07:35:04.844Z,24.80
2018-02-20T07:37:31.182Z,28.48
2018-02-20T07:39:57.457Z,26.35
2018-02-20T07:42:23.748Z,27.65
2018-02-20T07:44:50.120Z,27.70
2018-02-20T07:47:16.467Z,27.37
2018-02-20T07:49:42.776Z,27.58
2018-02-20T07:52:09.049Z,27.70
2018-02-20T07:54:35.376Z,28.33
2018-02-20T07:57:01.757Z,28.60
2018-02-20T07:59:28.784Z,29.70
2018-02-20T08:01:55.150Z,29.75
2018-02-20T08:04:21.487Z,29.10
2018-02-20T08:06:47.789Z,31.60
2018-02-20T08:09:14.885Z,30.00
2018-02-20T08:11:41.241Z,30.50
2018-02-20T08:14:07.568Z,32.88
2018-02-20T08:16:33.932Z,31.00
2018-02-20T08:19:00.964Z,32.63
2018-02-20T08:21:27.349Z,31.50
2018-02-20T08:23:53.659Z,30.60
2018-02-20T08:26:20.028Z,31.73
2018-02-20T08:28:46.344Z,33.63
2018-02-20T08:31:12.724Z,31.87
2018-02-20T08:33:39.758Z,31.40
2018-02-20T08:36:06.136Z,29.95
2018-02-20T08:38:32.437Z,31.45
2018-02-20T08:40:59.485Z,30.67
2018-02-20T08:43:25.744Z,31.10
2018-02-20T08:45:52.105Z,30.15
2018-02-20T08:48:18.436Z,29.80
2018-02-20T08:50:44.836Z,29.65
2018-02-20T08:53:11.142Z,30.42
2018-02-20T08:55:38.228Z,30.58
2018-02-20T08:58:04.491Z,29.63
2018-02-20T09:00:30.800Z,31.27
2018-02-20T09:02:57.844Z,30.52
2018-02-20T09:05:24.201Z,32.35
2018-02-20T09:07:50.533Z,29.60
2018-02-20T09:10:16.900Z,28.15
2018-02-20T09:12:43.931Z,29.42
2018-02-20T09:15:11.000Z,29.20
2018-02-20T09:17:37.367Z,26.87
2018-02-20T09:20:03.692Z,27.63
2018-02-20T09:22:29.964Z,26.73
2018-02-20T09:24:56.269Z,27.73
2018-02-20T09:27:22.640Z,26.33
2018-02-20T09:29:49.677Z,26.87
2018-02-20T09:32:16.040Z,24.80
2018-02-20T09:34:42.373Z,25.93
2018-02-20T09:37:08.729Z,26.47
2018-02-20T09:39:34.992Z,24.93
2018-02-20T09:42:01.325Z,25.43
2018-02-20T09:44:27.644Z,25.30
2018-02-20T09:46:54.022Z,25.83
2018-02-20T09:49:20.341Z,24.90
2018-02-20T09:51:47.413Z,25.67
2018-02-20T09:54:13.740Z,25.70
2018-02-20T09:56:40.105Z,26.90
2018-02-20T09:59:06.443Z,28.40
2018-02-20T10:01:32.803Z,27.70
2018-02-20T10:03:59.850Z,26.33
2018-02-20T10:06:26.974Z,27.50
2018-02-20T10:08:53.231Z,26.63
2018-02-20T10:11:20.324Z,26.70
2018-02-20T10:13:46.649Z,28.30
2018-02-20T10:16:13.019Z,27.07
2018-02-20T10:18:39.345Z,26.73
2018-02-20T10:21:05.641Z,27.67
2018-02-20T10:23:31.927Z,26.53
2018-02-20T10:25:59.011Z,28.03
2018-02-20T10:28:25.348Z,25.17
2018-02-20T10:30:51.700Z,27.73
2018-02-20T10:33:18.032Z,25.03
2018-02-20T10:35:44.390Z,26.40
2018-02-20T10:38:10.722Z,25.77
2018-02-20T10:40:36.994Z,27.53
2018-02-20T10:43:03.304Z,28.57
2018-02-20T10:45:30.382Z,29.00
2018-02-20T10:47:56.745Z,27.90
2018-02-20T10:50:23.082Z,27.43
2018-02-20T10:52:49.412Z,28.27
2018-02-20T10:55:15.772Z,28.47
2018-02-20T10:57:42.804Z,30.77
2018-02-20T11:00:09.180Z,28.77
2018-02-20T11:02:35.508Z,29.50
2018-02-20T11:05:01.854Z,29.30
2018-02-20T11:07:28.188Z,31.07
2018-02-20T11:09:54.547Z,30.27
2018-02-20T11:12:20.867Z,29.70
2018-02-20T11:14:47.244Z,30.57
2018-02-20T11:17:14.272Z,29.20
2018-02-20T11:19:40.636Z,32.13
2018-02-20T11:22:06.960Z,29.90
2018-02-20T11:24:33.336Z,31.83
2018-02-20T11:26:59.584Z,31.37
2018-02-20T11:29:25.861Z,32.50
2018-02-20T11:31:52.175Z,29.17
2018-02-20T11:34:18.761Z,31.50
2018-02-20T11:36:45.056Z,29.80
2018-02-20T11:39:11.408Z,31.60
2018-02-20T11:41:37.733Z,29.77
2018-02-20T11:44:04.089Z,32.40
2018-02-20T11:46:30.420Z,30.40
2018-02-20T11:48:56.832Z,29.27
2018-02-20T11:51:23.108Z,31.17
2018-02-20T11:53:49.472Z,30.43
2018-02-20T11:56:15.792Z,30.50
2018-02-20T11:58:42.142Z,32.10
2018-02-20T12:01:08.424Z,29.23
2018-02-20T12:03:34.765Z,30.07
2018-02-20T12:06:01.793Z,30.53
2018-02-20T12:08:28.164Z,29.50
2018-02-20T12:10:54.489Z,30.97
2018-02-20T12:13:20.892Z,27.80
2018-02-20T12:15:47.168Z,31.00
2018-02-20T12:18:13.527Z,28.30
2018-02-20T12:20:39.863Z,30.67
2018-02-20T12:23:06.884Z,30.67
2018-02-20T12:25:33.173Z,28.27
2018-02-20T12:28:00.305Z,30.97
2018-02-20T12:30:26.581Z,28.93
2018-02-20T12:32:52.953Z,29.07
2018-02-20T12:35:19.264Z,31.00
2018-02-20T12:37:45.620Z,30.67
2018-02-20T12:40:12.116Z,32.17
2018-02-20T12:42:38.420Z,31.53
2018-02-20T12:45:05.452Z,31.07
2018-02-20T12:47:32.548Z,33.43
2018-02-20T12:49:58.860Z,31.90
2018-02-20T12:52:25.272Z,33.40
2018-02-20T12:54:52.272Z,33.30
2018-02-20T12:57:18.648Z,33.53
2018-02-20T12:59:45.686Z,31.90
2018-02-20T13:02:12.047Z,32.80
2018-02-20T13:04:38.363Z,31.93
2018-02-20T13:07:05.468Z,33.70
2018-02-20T13:09:31.809Z,34.73
2018-02-20T13:11:58.144Z,32.00
2018-02-20T13:14:24.464Z,32.57
2018-02-20T13:16:50.854Z,33.30
2018-02-20T13:19:17.169Z,34.37
2018-02-20T13:21:44.272Z,33.73
2018-02-20T13:24:10.565Z,34.37
2018-02-20T13:26:36.821Z,31.73
2018-02-20T13:29:03.180Z,33.67
2018-02-20T13:31:30.218Z,33.03
2018-02-20T13:33:56.575Z,35.23
2018-02-20T13:36:22.920Z,32.50
2018-02-20T13:38:49.172Z,32.10
2018-02-20T13:41:15.512Z,33.40
2018-02-20T13:43:41.845Z,34.00
2018-02-20T13:46:08.287Z,33.03
2018-02-20T13:48:35.279Z,34.57
2018-02-20T13:51:02.359Z,32.67
2018-02-20T13:53:28.653Z,33.23
2018-02-20T13:55:55.983Z,32.63
2018-02-20T13:58:22.269Z,32.90
2018-02-20T14:00:48.540Z,31.57
2018-02-20T14:03:14.861Z,31.20
2018-02-20T14:05:41.944Z,30.20
2018-02-20T14:08:11.031Z,31.97
2018-02-20T14:10:37.293Z,32.70
2018-02-20T14:13:03.674Z,33.20
2018-02-20T14:15:29.988Z,37.50
2018-02-20T14:17:56.300Z,31.70
2018-02-20T14:20:22.677Z,37.30
2018-02-20T14:22:49.025Z,48.63
2018-02-20T14:25:16.059Z,40.93
2018-02-20T14:27:42.428Z,33.73
2018-02-20T14:30:08.728Z,32.07
2018-02-20T14:32:35.836Z,35.80
2018-02-20T14:35:02.165Z,33.40
2018-02-20T14:37:28.513Z,34.07
2018-02-20T14:39:54.852Z,34.30
2018-02-20T14:42:21.212Z,34.97
2018-02-20T14:44:48.248Z,32.70
2018-02-20T14:47:14.626Z,30.60
2018-02-20T14:49:40.935Z,34.20
2018-02-20T14:52:07.205Z,34.93
2018-02-20T14:54:34.344Z,35.40
2018-02-20T14:57:00.699Z,32.40
2018-02-20T14:59:27.385Z,31.07
2018-02-20T15:01:53.748Z,34.53
2018-02-20T15:04:20.128Z,34.17
2018-02-20T15:06:47.203Z,32.93
2018-02-20T15:09:13.541Z,34.17
2018-02-20T15:11:39.829Z,34.33
2018-02-20T15:14:07.213Z,33.13
2018-02-20T15:16:33.530Z,33.27
2018-02-20T15:19:00.600Z,35.17
2018-02-20T15:21:27.025Z,31.50
2018-02-20T15:23:53.465Z,34.73
2018-02-20T15:26:19.899Z,32.67
2018-02-20T15:28:46.317Z,36.03
2018-02-20T15:31:12.656Z,34.27
2018-02-20T15:33:38.964Z,34.83
2018-02-20T15:36:05.978Z,34.40
2018-02-20T15:38:32.836Z,34.90
2018-02-20T15:40:59.308Z,35.50
2018-02-20T15:43:26.640Z,33.60
2018-02-20T15:45:53.811Z,33.07
2018-02-20T15:48:20.125Z,32.80
2018-02-20T15:50:47.200Z,33.23
2018-02-20T15:53:13.488Z,33.37
2018-02-20T15:55:39.956Z,31.77
2018-02-20T15:58:06.256Z,34.37
2018-02-20T16:00:33.332Z,33.43
2018-02-20T16:02:59.636Z,33.60
2018-02-20T16:05:26.707Z,33.53
2018-02-20T16:07:53.012Z,35.03
2018-02-20T16:10:20.175Z,32.90
2018-02-20T16:12:47.316Z,34.63
2018-02-20T16:15:14.395Z,33.47
2018-02-20T16:17:40.830Z,35.93
2018-02-20T16:20:07.227Z,36.10
2018-02-20T16:22:34.296Z,35.10
2018-02-20T16:25:00.620Z,37.10
2018-02-20T16:27:27.676Z,35.73
2018-02-20T16:29:53.990Z,38.60
2018-02-20T16:32:21.181Z,34.33
2018-02-20T16:34:47.568Z,35.57
2018-02-20T16:37:14.777Z,35.13
2018-02-20T16:39:41.289Z,36.10
2018-02-20T16:42:07.591Z,35.13
2018-02-20T16:44:34.669Z,37.07
2018-02-20T16:47:00.980Z,39.90
2018-02-20T16:49:27.414Z,39.07
2018-02-20T16:51:53.684Z,35.17
2018-02-20T16:54:20.390Z,38.10
2018-02-20T16:56:46.782Z,36.20
2018-02-20T16:59:13.132Z,37.67
2018-02-20T17:01:40.194Z,36.17
2018-02-20T17:04:06.507Z,35.50
2018-02-20T17:06:33.700Z,35.43
2018-02-20T17:09:00.077Z,36.30
2018-02-20T17:11:26.375Z,38.60
2018-02-20T17:13:52.626Z,44.13
2018-02-20T17:16:18.996Z,49.70
2018-02-20T17:18:46.001Z,39.90
2018-02-20T17:21:12.371Z,44.83
2018-02-20T17:23:39.416Z,46.97
2018-02-20T17:26:06.421Z,47.57
2018-02-20T17:28:32.773Z,41.70
2018-02-20T17:30:59.139Z,42.60
2018-02-20T17:33:25.592Z,41.03
2018-02-20T17:35:52.033Z,44.50
2018-02-20T17:38:18.392Z,44.70
2018-02-20T17:40:44.872Z,47.53
2018-02-20T17:43:11.584Z,45.30
2018-02-20T17:45:38.656Z,42.83
2018-02-20T17:48:04.917Z,43.53
2018-02-20T17:50:32.021Z,41.50
2018-02-20T17:52:59.032Z,38.27
2018-02-20T17:55:25.406Z,38.27
2018-02-20T17:57:51.700Z,37.63
2018-02-20T18:00:18.172Z,37.73
2018-02-20T18:02:44.640Z,37.17
2018-02-20T18:05:11.048Z,36.70
2018-02-20T18:07:37.300Z,36.37
2018-02-20T18:10:03.688Z,38.00
2018-02-20T18:12:30.751Z,37.20
2018-02-20T18:14:57.040Z,39.70
2018-02-20T18:17:25.272Z,36.70
2018-02-20T18:19:51.595Z,38.10
2018-02-20T18:22:17.964Z,38.47
2018-02-20T18:24:44.322Z,37.40
2018-02-20T18:27:10.716Z,38.92
2018-02-20T18:29:37.975Z,37.27
2018-02-20T18:32:05.134Z,38.60
2018-02-20T18:34:31.607Z,39.17
2018-02-20T18:36:58.534Z,43.00
2018-02-20T18:39:26.903Z,37.33
2018-02-20T18:41:54.951Z,38.30
2018-02-20T18:44:22.167Z,38.87
2018-02-20T18:46:49.162Z,36.90
2018-02-20T18:49:17.639Z,40.80
2018-02-20T18:51:45.540Z,38.70
2018-02-20T18:54:13.856Z,38.90
2018-02-20T18:56:40.874Z,42.30
2018-02-20T18:59:08.901Z,38.90
2018-02-20T19:01:35.877Z,40.37
2018-02-20T19:04:02.850Z,39.53
2018-02-20T19:06:30.084Z,38.77
2018-02-20T19:08:56.412Z,37.53
2018-02-20T19:11:22.785Z,40.40
2018-02-20T19:13:49.111Z,40.22
2018-02-20T19:16:16.572Z,41.10
2018-02-20T19:18:42.935Z,41.70
2018-02-20T19:21:09.288Z,36.97
2018-02-20T19:23:36.341Z,40.55
2018-02-20T19:26:02.702Z,38.38
2018-02-20T19:28:29.121Z,41.30
2018-02-20T19:30:55.485Z,41.17
2018-02-20T19:33:21.830Z,44.40
2018-02-20T19:35:48.172Z,41.50
2018-02-20T19:38:14.476Z,38.65
2018-02-20T19:40:40.852Z,42.85
2018-02-20T19:43:07.891Z,42.17
2018-02-20T19:45:34.984Z,41.22
2018-02-20T19:48:01.304Z,40.50
2018-02-20T19:50:27.677Z,39.72
2018-02-20T19:52:54.700Z,40.63
2018-02-20T19:55:21.092Z,40.92
2018-02-20T19:57:48.115Z,38.03
2018-02-20T20:00:14.484Z,40.87
2018-02-20T20:02:41.029Z,38.63
2018-02-20T20:05:07.373Z,41.22
2018-02-20T20:07:34.728Z,44.95
2018-02-20T20:10:01.128Z,43.90
2018-02-20T20:12:27.449Z,46.05
2018-02-20T20:14:53.831Z,45.33
2018-02-20T20:17:20.137Z,43.97
2018-02-20T20:19:46.477Z,43.22
2018-02-20T20:22:12.868Z,41.92
2018-02-20T20:24:40.240Z,40.63
2018-02-20T20:27:06.556Z,38.70
2018-02-20T20:29:33.571Z,40.05
2018-02-20T20:31:59.856Z,43.25
2018-02-20T20:34:26.100Z,40.83
2018-02-20T20:36:52.380Z,40.35
2018-02-20T20:39:18.863Z,38.30
2018-02-20T20:41:45.135Z,41.30
2018-02-20T20:44:11.753Z,47.15
2018-02-20T20:46:38.040Z,39.60
2018-02-20T20:49:04.322Z,40.50
2018-02-20T20:51:32.299Z,42.62
2018-02-20T20:53:58.713Z,42.45
2018-02-20T20:56:24.988Z,38.58
2018-02-20T20:58:52.260Z,41.40
2018-02-20T21:01:18.601Z,36.50
2018-02-20T21:03:45.109Z,37.88
2018-02-20T21:06:11.540Z,35.50
2018-02-20T21:08:38.584Z,34.60
2018-02-20T21:11:05.600Z,35.85
2018-02-20T21:13:32.085Z,37.10
2018-02-20T21:15:58.649Z,41.30
2018-02-20T21:18:24.913Z,37.00
2018-02-20T21:20:51.389Z,35.13
2018-02-20T21:23:17.642Z,32.20
2018-02-20T21:25:43.893Z,34.97
2018-02-20T21:28:11.078Z,32.95
2018-02-20T21:30:37.328Z,39.50
2018-02-20T21:33:03.599Z,38.47
2018-02-20T21:35:30.088Z,33.58
2018-02-20T21:37:56.345Z,32.05
2018-02-20T21:40:22.607Z,30.95
2018-02-20T21:42:49.384Z,28.23
2018-02-20T21:45:15.699Z,31.77
2018-02-20T21:47:42.021Z,32.05
2018-02-20T21:50:09.301Z,33.85
2018-02-20T21:52:35.751Z,30.85
2018-02-20T21:55:02.110Z,30.77
2018-02-20T21:57:28.691Z,31.73
2018-02-20T21:59:54.999Z,28.73
2018-02-20T22:02:21.326Z,27.30
2018-02-20T22:04:48.608Z,29.42
2018-02-20T22:07:14.857Z,29.10
2018-02-20T22:09:41.188Z,29.33
2018-02-20T22:12:07.712Z,30.08
2018-02-20T22:14:33.981Z,30.30
2018-02-20T22:17:00.476Z,29.90
2018-02-20T22:19:26.723Z,30.50
2018-02-20T22:21:52.989Z,31.70
2018-02-20T22:24:19.461Z,29.50
2018-02-20T22:26:45.711Z,29.00
2018-02-20T22:29:11.968Z,27.90
2018-02-20T22:31:38.458Z,31.95
2018-02-20T22:34:04.723Z,33.28
2018-02-20T22:36:30.992Z,30.08
2018-02-20T22:38:58.172Z,31.35
2018-02-20T22:41:24.548Z,32.10
2018-02-20T22:43:52.317Z,32.05
2018-02-20T22:46:18.919Z,31.35
2018-02-20T22:48:45.376Z,31.50
2018-02-20T22:51:11.727Z,33.88
2018-02-20T22:53:38.403Z,29.65
2018-02-20T22:56:04.823Z,29.92
2018-02-20T22:58:31.207Z,28.60
2018-02-20T23:00:57.510Z,29.58
2018-02-20T23:03:23.865Z,25.90
2018-02-20T23:05:50.232Z,26.70
2018-02-20T23:08:17.297Z,27.25
2018-02-20T23:10:43.655Z,27.95
2018-02-20T23:13:09.921Z,26.05
2018-02-20T23:15:36.208Z,27.10
2018-02-20T23:18:02.548Z,26.62
2018-02-20T23:20:28.896Z,24.73
2018-02-20T23:22:55.228Z,25.25
2018-02-20T23:25:21.593Z,25.40
2018-02-20T23:27:48.637Z,25.30
2018-02-20T23:30:15.660Z,26.48
2018-02-20T23:32:41.936Z,24.75
2018-02-20T23:35:08.307Z,24.65
2018-02-20T23:37:34.650Z,24.85
2018-02-20T23:40:14.150Z,25.65
2018-02-20T23:42:40.441Z,25.42
2018-02-20T23:45:06.800Z,24.00
2018-02-20T23:47:33.164Z,24.42
2018-02-20T23:49:59.480Z,25.25
2018-02-20T23:52:25.849Z,24.17
2018-02-20T23:54:52.184Z,23.87
2018-02-20T23:57:18.499Z,24.08
2018-02-20T23:59:45.823Z,23.92
